Wicomico — WDC7747 — position and weather

sailwx.info

Track history (hours):
 
Tides and Currents Weather Stations Pressure Air Temp Water Temp Dewpoint Dewpoint Depression Visibility Wind Speed Wind Dir Waves Ship Positions

Wicomico

Owner: Vane Brothers Company TUG Wicomico, Philadelphia, PA. More information available from US FCC via Universal Licensing System.

Last reported at 2018-Jan-22 11:20 UTC. Time now 2018-Jan-23 03:54 UTC.
Position N 41°17' W 072°06'.

Length 33 m; draft 4.5 m.

Type: Tow > 200 m length. MMSI: 367076210.

Date/timePositionNaut miles runAvg speedWind from/ knotsBaromVisibWave heightAir tempDewpointWater temp
2018-Jan-22 11:20N 41°17' W 072°06'1 3.2
2018-Jan-22 11:00N 41°17' W 072°04'2 2.9
2018-Jan-22 10:25N 41°15' W 072°04'2 2.1
2018-Jan-22 09:17N 41°17' W 072°06'0 0.0
2018-Jan-22 07:03N 41°17' W 072°06'0 3.3
2018-Jan-22 07:00N 41°17' W 072°06'122 6.2
2018-Jan-21 11:17N 39°49' W 073°58'2 7.1
2018-Jan-21 11:00N 39°47' W 073°58'5 7.1
2018-Jan-21 10:16N 39°42' W 073°60'3 7.1
2018-Jan-21 09:49N 39°39' W 074°01'3 7.1
2018-Jan-21 09:26N 39°37' W 074°03'3 7.0
2018-Jan-21 08:57N 39°34' W 074°05'68 3.8
2018-Jan-20 15:23N 39°40' W 075°33'3 7.4
2018-Jan-20 15:00N 39°42' W 075°31'1 1.7
2018-Jan-20 14:30N 39°43' W 075°31'0 0.0
2018-Jan-20 13:59N 39°43' W 075°31'0 0.3
2018-Jan-20 13:26N 39°43' W 075°31'0 0.0
2018-Jan-20 12:35N 39°43' W 075°31'0 0.1
2018-Jan-20 12:28N 39°43' W 075°31'0 0.0
2018-Jan-20 12:00N 39°43' W 075°31'0 0.0
2018-Jan-20 11:30N 39°43' W 075°31'0 0.0
2018-Jan-20 10:57N 39°43' W 075°31'0 0.0
2018-Jan-20 10:27N 39°43' W 075°31'0 0.0
2018-Jan-20 09:56N 39°43' W 075°31'0 0.0
2018-Jan-20 09:28N 39°43' W 075°31'0 0.0
2018-Jan-20 08:48N 39°43' W 075°31'0 0.0
2018-Jan-20 08:26N 39°43' W 075°31'0 0.0
2018-Jan-20 06:14N 39°43' W 075°31'0 0.0
2018-Jan-20 05:44N 39°43' W 075°31'0 0.0
2018-Jan-20 03:14N 39°43' W 075°31'0 0.0
2018-Jan-20 03:00N 39°43' W 075°31'0 0.0
2018-Jan-20 02:30N 39°43' W 075°31'0 0.0
2018-Jan-20 02:00N 39°43' W 075°31'0 0.0
2018-Jan-20 01:31N 39°43' W 075°31'0 0.0
2018-Jan-20 01:00N 39°43' W 075°31'0 0.0
2018-Jan-20 00:30N 39°43' W 075°31'0 0.0
2018-Jan-20 00:00N 39°43' W 075°31'0 0.0
2018-Jan-19 23:30N 39°43' W 075°31'0 0.0
2018-Jan-19 23:00N 39°43' W 075°31'0 0.0
2018-Jan-19 22:30N 39°43' W 075°31'0 0.0
2018-Jan-19 22:00N 39°43' W 075°31'0 0.0
2018-Jan-19 21:30N 39°43' W 075°31'0 0.0
2018-Jan-19 21:00N 39°43' W 075°31'0 0.0
2018-Jan-19 20:30N 39°43' W 075°31'0 0.0
2018-Jan-19 20:00N 39°43' W 075°31'0 0.0
2018-Jan-19 19:30N 39°43' W 075°31'0 0.0
2018-Jan-19 19:00N 39°43' W 075°31'0 0.0
2018-Jan-19 18:30N 39°43' W 075°31'0 0.0
2018-Jan-19 18:00N 39°43' W 075°31'0 0.0
2018-Jan-19 17:30N 39°43' W 075°31'0 0.0
2018-Jan-19 17:00N 39°43' W 075°31'0 0.0
2018-Jan-19 16:30N 39°43' W 075°31'0 0.0
2018-Jan-19 16:00N 39°43' W 075°31'0 0.0
2018-Jan-19 15:30N 39°43' W 075°31'0 0.0
2018-Jan-19 15:00N 39°43' W 075°31'0 0.0
2018-Jan-19 14:30N 39°43' W 075°31'0 0.0
2018-Jan-19 14:00N 39°43' W 075°31'0 0.0
2018-Jan-19 13:30N 39°43' W 075°31'0 0.2
2018-Jan-19 13:00N 39°43' W 075°31'0 0.1
2018-Jan-19 12:30N 39°43' W 075°31'3 5.6
2018-Jan-19 12:00N 39°45' W 075°29'5 9.5
2018-Jan-19 11:30N 39°49' W 075°24'5 9.7
2018-Jan-19 11:00N 39°51' W 075°19'4 8.7
2018-Jan-19 10:30N 39°52' W 075°13'0 0.0
2018-Jan-19 10:01N 39°52' W 075°13'0 0.1
2018-Jan-19 09:30N 39°52' W 075°13'0 0.1
2018-Jan-19 09:00N 39°52' W 075°13'0 0.0
2018-Jan-19 08:30N 39°52' W 075°13'0 0.0
2018-Jan-19 08:00N 39°52' W 075°13'0 0.0
2018-Jan-19 07:30N 39°52' W 075°13'0 0.0
2018-Jan-19 07:00N 39°52' W 075°13'0 0.0
2018-Jan-19 06:30N 39°52' W 075°13'0 0.0
2018-Jan-19 06:00N 39°52' W 075°13'0 0.0
2018-Jan-19 05:30N 39°52' W 075°13'0 0.0
2018-Jan-19 05:00N 39°52' W 075°13'0 0.0
2018-Jan-19 04:30N 39°52' W 075°13'0 0.0
2018-Jan-19 04:00N 39°52' W 075°13'0 0.0
2018-Jan-19 03:30N 39°52' W 075°13'0 0.1
2018-Jan-19 03:00N 39°52' W 075°13'0 0.1
2018-Jan-19 02:30N 39°52' W 075°13'0 0.1
2018-Jan-19 02:00N 39°52' W 075°13'0 0.0
2018-Jan-19 01:30N 39°52' W 075°13'0 0.0
2018-Jan-19 01:00N 39°52' W 075°13'0 0.0
2018-Jan-19 00:30N 39°52' W 075°13'0 0.0
2018-Jan-19 00:00N 39°52' W 075°13'0 0.0
2018-Jan-18 23:30N 39°52' W 075°13'0 0.0
2018-Jan-18 23:00N 39°52' W 075°13'0 0.0
2018-Jan-18 22:30N 39°52' W 075°13'0 0.0
2018-Jan-18 22:00N 39°52' W 075°13'0 0.0
2018-Jan-18 21:30N 39°52' W 075°13'0 0.1
2018-Jan-18 21:00N 39°52' W 075°13'0 0.0
2018-Jan-18 20:07N 39°52' W 075°13'0 0.1
2018-Jan-18 20:00N 39°52' W 075°13'0 0.1
2018-Jan-18 19:30N 39°52' W 075°13'0 0.0
2018-Jan-18 19:00N 39°52' W 075°13'0 0.0
2018-Jan-18 18:30N 39°52' W 075°13'0 0.0
2018-Jan-18 18:00N 39°52' W 075°13'0 0.0
2018-Jan-18 17:30N 39°52' W 075°13'0 0.0
2018-Jan-18 17:00N 39°52' W 075°13'0 0.0
2018-Jan-18 16:30N 39°52' W 075°13'0 0.0
2018-Jan-18 16:00N 39°52' W 075°13'0 0.0
2018-Jan-18 15:30N 39°52' W 075°13'0 0.0
2018-Jan-18 15:00N 39°52' W 075°13'0 0.1
2018-Jan-18 14:30N 39°52' W 075°13'0 0.1
2018-Jan-18 14:00N 39°52' W 075°13'0 0.2
2018-Jan-18 13:30N 39°52' W 075°13'0 0.0
2018-Jan-18 13:00N 39°52' W 075°13'0 0.0
2018-Jan-18 12:31N 39°52' W 075°13'0 0.0
2018-Jan-18 12:00N 39°52' W 075°13'0 0.0
2018-Jan-18 11:30N 39°52' W 075°13'0 0.0
2018-Jan-18 11:00N 39°52' W 075°13'0 0.0
2018-Jan-18 10:30N 39°52' W 075°13'0 0.0
2018-Jan-18 10:00N 39°52' W 075°13'0 0.0
2018-Jan-18 09:30N 39°52' W 075°13'0 0.0
2018-Jan-18 09:00N 39°52' W 075°13'0 0.1
2018-Jan-18 08:30N 39°52' W 075°13'0 0.1
2018-Jan-18 08:00N 39°52' W 075°13'0 0.1
2018-Jan-18 07:30N 39°52' W 075°13'0 0.0
2018-Jan-18 07:00N 39°52' W 075°13'0 0.0
2018-Jan-18 06:30N 39°52' W 075°13'0 0.0
2018-Jan-18 06:00N 39°52' W 075°13'0 0.0
2018-Jan-18 05:30N 39°52' W 075°13'0 0.0
2018-Jan-18 05:00N 39°52' W 075°13'0 0.0
2018-Jan-18 04:30N 39°52' W 075°13'0 0.0
2018-Jan-18 04:00N 39°52' W 075°13'0 0.0
2018-Jan-18 03:31N 39°52' W 075°13'0 0.0
2018-Jan-18 03:00N 39°52' W 075°13'0 0.1
2018-Jan-18 02:30N 39°52' W 075°13'0 0.1
2018-Jan-18 02:00N 39°52' W 075°13'0 0.0
2018-Jan-18 01:30N 39°52' W 075°13'0 0.0
2018-Jan-18 01:01N 39°52' W 075°13'0 0.0
2018-Jan-18 00:00N 39°52' W 075°13'0 0.1
2018-Jan-17 23:57N 39°52' W 075°13'  
2018-Jan-12 14:59N 39°54' W 075°12'0 0.0
2018-Jan-12 14:30N 39°54' W 075°12'0 0.0
2018-Jan-12 14:00N 39°54' W 075°12'0 0.0
2018-Jan-12 13:30N 39°54' W 075°12'0 0.0
2018-Jan-12 13:00N 39°54' W 075°12'0 0.0
2018-Jan-12 12:30N 39°54' W 075°12'0 0.0
2018-Jan-12 12:00N 39°54' W 075°12'0 0.0
2018-Jan-12 11:30N 39°54' W 075°12'  
Track history (hours):
 
Tides and Currents Weather Stations Pressure Air Temp Water Temp Dewpoint Dewpoint Depression Visibility Wind Speed Wind Dir Waves Ship Positions

Wicomico

Owner: Vane Brothers Company TUG Wicomico, Philadelphia, PA. More information available from US FCC via Universal Licensing System.

Last reported at 2018-Jan-22 11:20 UTC. Time now 2018-Jan-23 03:54 UTC.
Position N 41°17' W 072°06'.

Length 33 m; draft 4.5 m.

Type: Tow > 200 m length. MMSI: 367076210.

Date/timePositionNaut miles runAvg speedWind from/ knotsBaromVisibWave heightAir tempDewpointWater temp
2018-Jan-22 11:20N 41°17' W 072°06'1 3.2
2018-Jan-22 11:00N 41°17' W 072°04'2 2.9
2018-Jan-22 10:25N 41°15' W 072°04'2 2.1
2018-Jan-22 09:17N 41°17' W 072°06'0 0.0
2018-Jan-22 07:03N 41°17' W 072°06'0 3.3
2018-Jan-22 07:00N 41°17' W 072°06'122 6.2
2018-Jan-21 11:17N 39°49' W 073°58'2 7.1
2018-Jan-21 11:00N 39°47' W 073°58'5 7.1
2018-Jan-21 10:16N 39°42' W 073°60'3 7.1
2018-Jan-21 09:49N 39°39' W 074°01'3 7.1
2018-Jan-21 09:26N 39°37' W 074°03'3 7.0
2018-Jan-21 08:57N 39°34' W 074°05'68 3.8
2018-Jan-20 15:23N 39°40' W 075°33'3 7.4
2018-Jan-20 15:00N 39°42' W 075°31'1 1.7
2018-Jan-20 14:30N 39°43' W 075°31'0 0.0
2018-Jan-20 13:59N 39°43' W 075°31'0 0.3
2018-Jan-20 13:26N 39°43' W 075°31'0 0.0
2018-Jan-20 12:35N 39°43' W 075°31'0 0.1
2018-Jan-20 12:28N 39°43' W 075°31'0 0.0
2018-Jan-20 12:00N 39°43' W 075°31'0 0.0
2018-Jan-20 11:30N 39°43' W 075°31'0 0.0
2018-Jan-20 10:57N 39°43' W 075°31'0 0.0
2018-Jan-20 10:27N 39°43' W 075°31'0 0.0
2018-Jan-20 09:56N 39°43' W 075°31'0 0.0
2018-Jan-20 09:28N 39°43' W 075°31'0 0.0
2018-Jan-20 08:48N 39°43' W 075°31'0 0.0
2018-Jan-20 08:26N 39°43' W 075°31'0 0.0
2018-Jan-20 06:14N 39°43' W 075°31'0 0.0
2018-Jan-20 05:44N 39°43' W 075°31'0 0.0
2018-Jan-20 03:14N 39°43' W 075°31'0 0.0
2018-Jan-20 03:00N 39°43' W 075°31'0 0.0
2018-Jan-20 02:30N 39°43' W 075°31'0 0.0
2018-Jan-20 02:00N 39°43' W 075°31'0 0.0
2018-Jan-20 01:31N 39°43' W 075°31'0 0.0
2018-Jan-20 01:00N 39°43' W 075°31'0 0.0
2018-Jan-20 00:30N 39°43' W 075°31'0 0.0
2018-Jan-20 00:00N 39°43' W 075°31'0 0.0
2018-Jan-19 23:30N 39°43' W 075°31'0 0.0
2018-Jan-19 23:00N 39°43' W 075°31'0 0.0
2018-Jan-19 22:30N 39°43' W 075°31'0 0.0
2018-Jan-19 22:00N 39°43' W 075°31'0 0.0
2018-Jan-19 21:30N 39°43' W 075°31'0 0.0
2018-Jan-19 21:00N 39°43' W 075°31'0 0.0
2018-Jan-19 20:30N 39°43' W 075°31'0 0.0
2018-Jan-19 20:00N 39°43' W 075°31'0 0.0
2018-Jan-19 19:30N 39°43' W 075°31'0 0.0
2018-Jan-19 19:00N 39°43' W 075°31'0 0.0
2018-Jan-19 18:30N 39°43' W 075°31'0 0.0
2018-Jan-19 18:00N 39°43' W 075°31'0 0.0
2018-Jan-19 17:30N 39°43' W 075°31'0 0.0
2018-Jan-19 17:00N 39°43' W 075°31'0 0.0
2018-Jan-19 16:30N 39°43' W 075°31'0 0.0
2018-Jan-19 16:00N 39°43' W 075°31'0 0.0
2018-Jan-19 15:30N 39°43' W 075°31'0 0.0
2018-Jan-19 15:00N 39°43' W 075°31'0 0.0
2018-Jan-19 14:30N 39°43' W 075°31'0 0.0
2018-Jan-19 14:00N 39°43' W 075°31'0 0.0
2018-Jan-19 13:30N 39°43' W 075°31'0 0.2
2018-Jan-19 13:00N 39°43' W 075°31'0 0.1
2018-Jan-19 12:30N 39°43' W 075°31'3 5.6
2018-Jan-19 12:00N 39°45' W 075°29'5 9.5
2018-Jan-19 11:30N 39°49' W 075°24'5 9.7
2018-Jan-19 11:00N 39°51' W 075°19'4 8.7
2018-Jan-19 10:30N 39°52' W 075°13'0 0.0
2018-Jan-19 10:01N 39°52' W 075°13'0 0.1
2018-Jan-19 09:30N 39°52' W 075°13'0 0.1
2018-Jan-19 09:00N 39°52' W 075°13'0 0.0
2018-Jan-19 08:30N 39°52' W 075°13'0 0.0
2018-Jan-19 08:00N 39°52' W 075°13'0 0.0
2018-Jan-19 07:30N 39°52' W 075°13'0 0.0
2018-Jan-19 07:00N 39°52' W 075°13'0 0.0
2018-Jan-19 06:30N 39°52' W 075°13'0 0.0
2018-Jan-19 06:00N 39°52' W 075°13'0 0.0
2018-Jan-19 05:30N 39°52' W 075°13'0 0.0
2018-Jan-19 05:00N 39°52' W 075°13'0 0.0
2018-Jan-19 04:30N 39°52' W 075°13'0 0.0
2018-Jan-19 04:00N 39°52' W 075°13'0 0.0
2018-Jan-19 03:30N 39°52' W 075°13'0 0.1
2018-Jan-19 03:00N 39°52' W 075°13'0 0.1
2018-Jan-19 02:30N 39°52' W 075°13'0 0.1
2018-Jan-19 02:00N 39°52' W 075°13'0 0.0
2018-Jan-19 01:30N 39°52' W 075°13'0 0.0
2018-Jan-19 01:00N 39°52' W 075°13'0 0.0
2018-Jan-19 00:30N 39°52' W 075°13'0 0.0
2018-Jan-19 00:00N 39°52' W 075°13'0 0.0
2018-Jan-18 23:30N 39°52' W 075°13'0 0.0
2018-Jan-18 23:00N 39°52' W 075°13'0 0.0
2018-Jan-18 22:30N 39°52' W 075°13'0 0.0
2018-Jan-18 22:00N 39°52' W 075°13'0 0.0
2018-Jan-18 21:30N 39°52' W 075°13'0 0.1
2018-Jan-18 21:00N 39°52' W 075°13'0 0.0
2018-Jan-18 20:07N 39°52' W 075°13'0 0.1
2018-Jan-18 20:00N 39°52' W 075°13'0 0.1
2018-Jan-18 19:30N 39°52' W 075°13'0 0.0
2018-Jan-18 19:00N 39°52' W 075°13'0 0.0
2018-Jan-18 18:30N 39°52' W 075°13'0 0.0
2018-Jan-18 18:00N 39°52' W 075°13'0 0.0
2018-Jan-18 17:30N 39°52' W 075°13'0 0.0
2018-Jan-18 17:00N 39°52' W 075°13'0 0.0
2018-Jan-18 16:30N 39°52' W 075°13'0 0.0
2018-Jan-18 16:00N 39°52' W 075°13'0 0.0
2018-Jan-18 15:30N 39°52' W 075°13'0 0.0
2018-Jan-18 15:00N 39°52' W 075°13'0 0.1
2018-Jan-18 14:30N 39°52' W 075°13'0 0.1
2018-Jan-18 14:00N 39°52' W 075°13'0 0.2
2018-Jan-18 13:30N 39°52' W 075°13'0 0.0
2018-Jan-18 13:00N 39°52' W 075°13'0 0.0
2018-Jan-18 12:31N 39°52' W 075°13'0 0.0
2018-Jan-18 12:00N 39°52' W 075°13'0 0.0
2018-Jan-18 11:30N 39°52' W 075°13'0 0.0
2018-Jan-18 11:00N 39°52' W 075°13'0 0.0
2018-Jan-18 10:30N 39°52' W 075°13'0 0.0
2018-Jan-18 10:00N 39°52' W 075°13'0 0.0
2018-Jan-18 09:30N 39°52' W 075°13'0 0.0
2018-Jan-18 09:00N 39°52' W 075°13'0 0.1
2018-Jan-18 08:30N 39°52' W 075°13'0 0.1
2018-Jan-18 08:00N 39°52' W 075°13'0 0.1
2018-Jan-18 07:30N 39°52' W 075°13'0 0.0
2018-Jan-18 07:00N 39°52' W 075°13'0 0.0
2018-Jan-18 06:30N 39°52' W 075°13'0 0.0
2018-Jan-18 06:00N 39°52' W 075°13'0 0.0
2018-Jan-18 05:30N 39°52' W 075°13'0 0.0
2018-Jan-18 05:00N 39°52' W 075°13'0 0.0
2018-Jan-18 04:30N 39°52' W 075°13'0 0.0
2018-Jan-18 04:00N 39°52' W 075°13'0 0.0
2018-Jan-18 03:31N 39°52' W 075°13'0 0.0
2018-Jan-18 03:00N 39°52' W 075°13'0 0.1
2018-Jan-18 02:30N 39°52' W 075°13'0 0.1
2018-Jan-18 02:00N 39°52' W 075°13'0 0.0
2018-Jan-18 01:30N 39°52' W 075°13'0 0.0
2018-Jan-18 01:01N 39°52' W 075°13'0 0.0
2018-Jan-18 00:00N 39°52' W 075°13'0 0.1
2018-Jan-17 23:57N 39°52' W 075°13'  
2018-Jan-12 14:59N 39°54' W 075°12'0 0.0
2018-Jan-12 14:30N 39°54' W 075°12'0 0.0
2018-Jan-12 14:00N 39°54' W 075°12'0 0.0
2018-Jan-12 13:30N 39°54' W 075°12'0 0.0
2018-Jan-12 13:00N 39°54' W 075°12'0 0.0
2018-Jan-12 12:30N 39°54' W 075°12'0 0.0
2018-Jan-12 12:00N 39°54' W 075°12'0 0.0
2018-Jan-12 11:30N 39°54' W 075°12'  

Dump ship's entire track history